Time;durP1;ratioP1;P1;durP2;ratioP2;P2;SDS_P1;SDS_P2;PMS_P1;PMS_P2;Temp;Humidity;BMP_temperature;BMP_pressure;BME280_temperature;BME280_humidity;BME280_pressure;Samples;Min_cycle;Max_cycle;Signal;HPM_P1;HPM_P2
2023/03/14 00:01:55;;;;;;;22.35;3.55;;;10.90;99.90;;;;;;4886137;29;20081;-70
2023/03/14 00:04:20;;;;;;;32.33;5.55;;;10.90;99.90;;;;;;4885761;29;20045;-70
2023/03/14 00:06:46;;;;;;;28.40;4.43;;;10.90;99.90;;;;;;4885928;29;20041;-70
2023/03/14 00:09:13;;;;;;;29.13;4.78;;;10.90;99.90;;;;;;4885711;29;20094;-70
2023/03/14 00:11:39;;;;;;;29.27;3.92;;;10.90;99.90;;;;;;4886026;29;20320;-70
2023/03/14 00:14:04;;;;;;;27.52;4.88;;;10.90;99.90;;;;;;4885883;29;20052;-70
2023/03/14 00:16:30;;;;;;;28.10;4.20;;;11.00;99.90;;;;;;4885677;29;20111;-70
2023/03/14 00:18:57;;;;;;;31.27;4.28;;;10.90;99.90;;;;;;4900415;29;20036;-70
2023/03/14 00:21:23;;;;;;;28.27;4.05;;;10.90;99.90;;;;;;4885440;29;20434;-70
2023/03/14 00:23:49;;;;;;;29.10;3.95;;;10.90;99.90;;;;;;4885676;29;20045;-70
2023/03/14 00:26:16;;;;;;;37.50;4.88;;;11.00;99.90;;;;;;4885540;29;20430;-70
2023/03/14 00:28:43;;;;;;;22.73;3.80;;;11.00;99.90;;;;;;4884883;29;20053;-70
2023/03/14 00:31:11;;;;;;;32.25;4.28;;;11.10;99.90;;;;;;4885320;29;20045;-70
2023/03/14 00:33:37;;;;;;;28.60;4.72;;;11.10;99.90;;;;;;4885180;29;20442;-71
2023/03/14 00:36:05;;;;;;;26.17;4.63;;;11.20;99.90;;;;;;4885225;29;20045;-70
2023/03/14 00:38:32;;;;;;;28.75;4.25;;;11.20;99.90;;;;;;4885444;29;20092;-70
2023/03/14 00:40:58;;;;;;;27.33;3.78;;;11.10;99.90;;;;;;4885402;29;20033;-70
2023/03/14 00:43:24;;;;;;;27.13;3.90;;;11.10;99.90;;;;;;4885102;29;20048;-71
2023/03/14 00:45:52;;;;;;;19.30;4.47;;;11.10;99.90;;;;;;4885241;29;20052;-70
2023/03/14 00:48:19;;;;;;;28.38;3.60;;;11.00;99.90;;;;;;4885294;29;20044;-70
2023/03/14 00:50:45;;;;;;;24.35;4.45;;;11.10;99.90;;;;;;4884972;29;20040;-70
2023/03/14 00:53:11;;;;;;;22.73;3.47;;;11.10;99.90;;;;;;4885219;29;20124;-70
2023/03/14 00:55:42;;;;;;;28.30;3.60;;;11.10;99.90;;;;;;4885128;29;20421;-70
2023/03/14 00:58:08;;;;;;;23.38;3.75;;;11.10;99.90;;;;;;4884807;29;20115;-70
2023/03/14 01:00:35;;;;;;;30.13;4.47;;;11.00;99.90;;;;;;4884769;29;20037;-70
2023/03/14 01:03:01;;;;;;;24.08;4.03;;;11.10;99.90;;;;;;4884731;29;20437;-70
2023/03/14 01:05:27;;;;;;;26.08;3.80;;;11.10;99.90;;;;;;4884973;29;20051;-70
2023/03/14 01:07:53;;;;;;;34.33;4.35;;;11.10;99.90;;;;;;4884834;29;20048;-70
2023/03/14 01:10:19;;;;;;;27.77;3.90;;;11.10;99.90;;;;;;4884240;29;20032;-70
2023/03/14 01:12:44;;;;;;;26.75;3.85;;;11.00;99.90;;;;;;4884857;29;20037;-71
2023/03/14 01:15:10;;;;;;;22.55;3.65;;;11.10;99.90;;;;;;4884847;29;20044;-70
2023/03/14 01:17:37;;;;;;;25.48;3.70;;;11.10;99.90;;;;;;4884747;29;20045;-71
2023/03/14 01:20:04;;;;;;;25.20;3.50;;;11.00;99.90;;;;;;4884446;29;20124;-70
2023/03/14 01:22:30;;;;;;;27.58;3.58;;;11.00;99.90;;;;;;4884412;29;20115;-70
2023/03/14 01:24:56;;;;;;;29.92;4.63;;;11.10;99.90;;;;;;4884625;29;20368;-71
2023/03/14 01:27:21;;;;;;;22.42;3.28;;;11.00;99.90;;;;;;4883766;29;20053;-70
2023/03/14 01:29:47;;;;;;;23.17;3.85;;;11.00;99.90;;;;;;4883574;29;20116;-70
2023/03/14 01:32:13;;;;;;;18.77;3.75;;;11.00;99.90;;;;;;4884546;29;20404;-70
2023/03/14 01:34:39;;;;;;;27.75;3.47;;;11.10;99.90;;;;;;4884436;29;20037;-71
2023/03/14 01:37:07;;;;;;;26.73;3.58;;;11.10;99.90;;;;;;4884434;29;20064;-71
2023/03/14 01:39:32;;;;;;;20.58;3.33;;;11.10;99.90;;;;;;4884374;29;20048;-69
2023/03/14 01:41:59;;;;;;;24.23;3.90;;;11.10;99.90;;;;;;4884299;29;20044;-71
2023/03/14 01:44:25;;;;;;;18.42;3.88;;;11.10;99.90;;;;;;4883994;29;20044;-71
2023/03/14 01:46:51;;;;;;;18.55;2.92;;;11.10;99.90;;;;;;4884218;29;20041;-71
2023/03/14 01:49:25;;;;;;;21.75;4.13;;;11.20;99.90;;;;;;4884179;29;20411;-71
2023/03/14 01:52:21;;;;;;;21.50;3.13;;;11.20;99.90;;;;;;4884166;29;20037;-71
2023/03/14 01:54:55;;;;;;;19.98;3.47;;;11.20;99.90;;;;;;4884163;29;20072;-71
2023/03/14 01:57:27;;;;;;;18.20;2.72;;;11.20;99.90;;;;;;4883464;29;20443;-71
2023/03/14 02:00:04;;;;;;;21.02;2.88;;;11.20;99.90;;;;;;4884064;29;20049;-71
2023/03/14 02:02:30;;;;;;;24.20;2.97;;;11.30;99.90;;;;;;4884250;29;20029;-72
2023/03/14 02:04:57;;;;;;;14.85;2.80;;;11.30;99.90;;;;;;4883911;29;20041;-71
2023/03/14 02:07:32;;;;;;;16.13;3.03;;;11.30;99.90;;;;;;4883849;29;20051;-71
2023/03/14 02:10:01;;;;;;;24.25;3.35;;;11.20;99.90;;;;;;4883580;29;20048;-71
2023/03/14 02:12:27;;;;;;;29.30;3.35;;;11.20;99.90;;;;;;4883431;29;20115;-71
2023/03/14 02:14:53;;;;;;;25.50;3.65;;;11.20;99.90;;;;;;4883761;29;20116;-71
2023/03/14 02:17:20;;;;;;;19.65;2.92;;;11.10;99.90;;;;;;4883452;29;20116;-71
2023/03/14 02:20:05;;;;;;;14.75;2.72;;;11.00;99.90;;;;;;4897942;29;20124;-71
2023/03/14 02:22:31;;;;;;;18.02;2.85;;;10.90;99.90;;;;;;4882824;29;20045;-71
2023/03/14 02:25:06;;;;;;;16.25;2.38;;;10.90;99.90;;;;;;4883566;29;20033;-71
2023/03/14 02:27:33;;;;;;;20.20;2.95;;;10.90;99.90;;;;;;4882745;29;20435;-71
2023/03/14 02:30:03;;;;;;;19.80;3.17;;;10.90;99.90;;;;;;4883534;29;20363;-71
2023/03/14 02:32:34;;;;;;;14.00;2.72;;;10.90;99.90;;;;;;4883195;29;20487;-70
2023/03/14 02:35:08;;;;;;;21.60;2.72;;;10.90;99.90;;;;;;4883504;29;20044;-71
2023/03/14 02:37:43;;;;;;;15.35;2.53;;;10.80;99.90;;;;;;4883449;29;20051;-71
2023/03/14 02:40:10;;;;;;;19.02;3.15;;;10.80;99.90;;;;;;4867043;29;20060;-71
2023/03/14 02:42:35;;;;;;;15.27;3.13;;;10.80;99.90;;;;;;4897953;29;20041;-71
2023/03/14 02:45:21;;;;;;;21.58;3.55;;;10.80;99.90;;;;;;4883307;29;20120;-71
2023/03/14 02:47:52;;;;;;;18.05;2.42;;;10.70;99.90;;;;;;4882805;29;20041;-71
2023/03/14 02:50:21;;;;;;;16.98;2.30;;;10.70;99.90;;;;;;4883250;29;20033;-70
2023/03/14 02:52:47;;;;;;;14.75;2.40;;;10.80;99.90;;;;;;4883188;29;20064;-71
2023/03/14 02:55:13;;;;;;;14.55;2.65;;;10.80;99.90;;;;;;4897549;29;20507;-71
2023/03/14 02:57:38;;;;;;;13.82;2.50;;;10.70;99.90;;;;;;4882735;29;20044;-71
2023/03/14 03:00:05;;;;;;;9.20;2.40;;;10.80;99.90;;;;;;4882827;29;20131;-71
2023/03/14 03:02:31;;;;;;;11.50;1.92;;;10.80;99.90;;;;;;4866475;29;20036;-68
2023/03/14 03:04:57;;;;;;;15.40;2.50;;;10.80;99.90;;;;;;4883048;29;20049;-68
2023/03/14 03:07:24;;;;;;;17.17;3.47;;;10.80;99.90;;;;;;4882597;29;20427;-69
2023/03/14 03:09:49;;;;;;;13.93;2.60;;;10.90;99.90;;;;;;4883052;29;20029;-69
2023/03/14 03:12:15;;;;;;;13.23;3.13;;;10.70;99.90;;;;;;4882998;29;20097;-71
2023/03/14 03:14:41;;;;;;;14.65;2.95;;;10.70;99.90;;;;;;4882955;29;20419;-71
2023/03/14 03:17:07;;;;;;;15.93;2.70;;;10.60;99.90;;;;;;4882698;29;20120;-69
2023/03/14 03:19:33;;;;;;;11.57;2.63;;;10.50;99.90;;;;;;4882858;29;20044;-69
2023/03/14 03:21:59;;;;;;;12.95;2.63;;;10.50;99.90;;;;;;4882913;29;20318;-69
2023/03/14 03:24:25;;;;;;;17.35;3.15;;;10.40;99.90;;;;;;4882862;29;20048;-69
2023/03/14 03:26:52;;;;;;;16.48;4.65;;;10.40;99.90;;;;;;4882278;29;20045;-70
2023/03/14 03:29:19;;;;;;;18.25;4.13;;;10.40;99.90;;;;;;4882830;29;20048;-69
2023/03/14 03:31:45;;;;;;;24.77;4.60;;;10.40;99.90;;;;;;4882840;29;20056;-70
2023/03/14 03:34:12;;;;;;;18.48;5.00;;;10.40;99.90;;;;;;4884949;29;20041;-69
2023/03/14 03:36:39;;;;;;;22.88;5.40;;;10.30;99.90;;;;;;4886576;29;20045;-69
2023/03/14 03:39:04;;;;;;;21.83;5.70;;;10.30;99.90;;;;;;4886247;29;20487;-70
2023/03/14 03:41:30;;;;;;;20.70;6.18;;;10.30;99.90;;;;;;4886406;29;20146;-70
2023/03/14 03:43:56;;;;;;;15.57;6.13;;;10.20;99.90;;;;;;4886100;29;20434;-70
2023/03/14 03:46:22;;;;;;;17.02;6.05;;;10.10;99.90;;;;;;4886296;29;20041;-70
2023/03/14 03:48:48;;;;;;;19.25;6.70;;;10.30;99.90;;;;;;4886322;29;20040;-70
2023/03/14 03:51:15;;;;;;;14.82;7.20;;;10.30;99.90;;;;;;4886318;29;20041;-70
2023/03/14 03:53:42;;;;;;;21.80;7.88;;;10.30;99.90;;;;;;4885939;29;20041;-70
2023/03/14 03:56:08;;;;;;;19.38;7.43;;;10.30;99.90;;;;;;4886214;29;20352;-70
2023/03/14 03:58:35;;;;;;;27.48;8.40;;;10.30;99.90;;;;;;4885768;29;20041;-70
2023/03/14 04:01:00;;;;;;;24.80;8.55;;;10.30;99.90;;;;;;4886170;29;20085;-70
2023/03/14 04:03:26;;;;;;;27.33;8.68;;;10.20;99.90;;;;;;4886054;29;20044;-70
2023/03/14 04:06:00;;;;;;;28.65;8.77;;;10.20;99.90;;;;;;4885985;29;20123;-70
2023/03/14 04:08:26;;;;;;;28.33;9.45;;;10.20;99.90;;;;;;4885747;29;20041;-70
2023/03/14 04:10:56;;;;;;;26.50;9.00;;;10.10;99.90;;;;;;4885912;29;20033;-70
2023/03/14 04:13:21;;;;;;;29.77;9.75;;;10.20;99.90;;;;;;4885891;29;20033;-70
2023/03/14 04:15:47;;;;;;;26.67;9.93;;;10.30;99.90;;;;;;4885848;29;20416;-70
2023/03/14 04:18:12;;;;;;;25.90;9.80;;;10.30;99.90;;;;;;4885951;29;20037;-70
2023/03/14 04:20:38;;;;;;;24.85;9.10;;;10.30;99.90;;;;;;4885926;29;20037;-70
2023/03/14 04:23:04;;;;;;;26.27;10.23;;;10.40;99.90;;;;;;4886331;29;20096;-70
2023/03/14 04:25:29;;;;;;;35.05;9.50;;;10.40;99.90;;;;;;4885694;29;20125;-70
2023/03/14 04:27:55;;;;;;;27.25;9.10;;;10.50;99.90;;;;;;4884992;29;20049;-70
2023/03/14 04:30:21;;;;;;;25.90;10.00;;;10.40;99.90;;;;;;4885669;29;20083;-70
2023/03/14 04:32:47;;;;;;;27.65;9.85;;;10.50;99.90;;;;;;4885780;29;20168;-70
2023/03/14 04:35:13;;;;;;;26.70;10.45;;;10.50;99.90;;;;;;4885554;29;20391;-70
2023/03/14 04:37:39;;;;;;;23.23;9.77;;;10.50;99.90;;;;;;4885514;29;20438;-70
2023/03/14 04:40:06;;;;;;;27.23;11.20;;;10.40;99.90;;;;;;4885429;29;20041;-70
2023/03/14 04:42:32;;;;;;;24.17;11.32;;;10.40;99.90;;;;;;4885447;29;20089;-70
2023/03/14 04:44:58;;;;;;;31.30;11.02;;;10.40;99.90;;;;;;4884350;29;20080;-70
2023/03/14 04:47:23;;;;;;;23.25;11.30;;;10.40;99.90;;;;;;4885269;29;20049;-70
2023/03/14 04:49:49;;;;;;;20.88;10.25;;;10.50;99.90;;;;;;4885348;29;20040;-70
2023/03/14 04:52:15;;;;;;;22.45;10.80;;;10.60;99.90;;;;;;4885358;29;20093;-70
2023/03/14 04:54:40;;;;;;;23.05;11.85;;;10.50;99.90;;;;;;4884919;29;20040;-70
2023/03/14 04:57:06;;;;;;;26.10;11.48;;;10.40;99.90;;;;;;4868041;29;20127;-70
2023/03/14 04:59:31;;;;;;;26.02;10.57;;;10.40;99.90;;;;;;4885127;29;20096;-70
2023/03/14 05:01:57;;;;;;;20.90;10.27;;;10.30;99.90;;;;;;4885076;29;20036;-70
2023/03/14 05:04:23;;;;;;;26.02;10.35;;;10.30;99.90;;;;;;4885003;29;20056;-70
2023/03/14 05:06:48;;;;;;;23.23;10.18;;;10.30;99.90;;;;;;4884926;29;20435;-70
2023/03/14 05:09:15;;;;;;;24.50;9.50;;;10.40;99.90;;;;;;4884912;29;20419;-70
2023/03/14 05:11:41;;;;;;;26.00;9.73;;;10.40;99.90;;;;;;4884939;29;20353;-70
2023/03/14 05:14:06;;;;;;;26.40;9.60;;;10.40;99.90;;;;;;4884876;29;20047;-70
2023/03/14 05:16:32;;;;;;;24.00;9.75;;;10.30;99.90;;;;;;4884853;29;20423;-70
2023/03/14 05:18:58;;;;;;;19.35;10.20;;;10.30;99.90;;;;;;4884749;29;20056;-70
2023/03/14 05:21:23;;;;;;;21.80;10.35;;;10.30;99.90;;;;;;4884658;29;20044;-70
2023/03/14 05:23:49;;;;;;;31.42;11.45;;;10.20;99.90;;;;;;4884734;29;20045;-69
2023/03/14 05:26:16;;;;;;;24.73;11.45;;;10.30;99.90;;;;;;4867586;29;20422;-69
2023/03/14 05:28:42;;;;;;;26.23;11.55;;;10.30;99.90;;;;;;4883571;29;20063;-70
2023/03/14 05:31:09;;;;;;;32.78;11.73;;;10.30;99.90;;;;;;4884183;29;20439;-69
2023/03/14 05:33:34;;;;;;;33.08;12.65;;;10.30;99.90;;;;;;4884250;29;20045;-70
2023/03/14 05:36:00;;;;;;;33.47;12.95;;;10.30;99.90;;;;;;4884241;29;20063;-69
2023/03/14 05:38:26;;;;;;;32.58;12.80;;;10.20;99.90;;;;;;4884132;29;20121;-70
2023/03/14 05:40:51;;;;;;;29.60;11.60;;;10.20;99.90;;;;;;4884295;29;20044;-69
2023/03/14 05:43:17;;;;;;;27.42;12.55;;;10.10;99.90;;;;;;4884266;29;20459;-69
2023/03/14 05:45:43;;;;;;;29.70;12.93;;;10.20;99.90;;;;;;4884231;29;20037;-69
2023/03/14 05:48:09;;;;;;;27.75;12.98;;;10.10;99.90;;;;;;4884078;29;20045;-69
2023/03/14 05:50:35;;;;;;;30.98;11.45;;;10.00;99.90;;;;;;4884142;29;20044;-69
2023/03/14 05:53:00;;;;;;;29.13;11.88;;;10.20;99.90;;;;;;4884072;29;20041;-70
2023/03/14 05:55:26;;;;;;;31.55;12.02;;;10.20;99.90;;;;;;4884031;29;20051;-69
2023/03/14 05:57:53;;;;;;;19.48;10.85;;;10.10;99.90;;;;;;4883177;29;20049;-69
2023/03/14 06:00:19;;;;;;;27.92;12.32;;;9.90;99.90;;;;;;4884005;29;20112;-69
2023/03/14 06:02:45;;;;;;;29.25;12.90;;;9.90;99.90;;;;;;4883619;29;20041;-69
2023/03/14 06:05:11;;;;;;;34.85;14.52;;;9.80;99.90;;;;;;4867290;29;20049;-70
2023/03/14 06:07:36;;;;;;;26.13;12.43;;;9.80;99.90;;;;;;4871039;29;20348;-69
2023/03/14 06:10:03;;;;;;;26.95;12.15;;;9.80;99.90;;;;;;4865228;29;20044;-69
2023/03/14 06:12:29;;;;;;;17.95;9.48;;;9.80;99.90;;;;;;4865377;29;20124;-69
2023/03/14 06:14:55;;;;;;;18.13;10.35;;;9.70;99.90;;;;;;4865110;29;20548;-69
2023/03/14 06:17:20;;;;;;;22.27;11.48;;;9.80;99.90;;;;;;4865117;29;20336;-69
2023/03/14 06:19:46;;;;;;;27.17;11.65;;;9.80;99.90;;;;;;4865020;29;20049;-69
2023/03/14 06:22:12;;;;;;;22.52;11.38;;;9.80;99.90;;;;;;4865046;29;20049;-69
2023/03/14 06:24:37;;;;;;;23.60;10.27;;;9.80;99.90;;;;;;4865010;29;20041;-69
2023/03/14 06:27:03;;;;;;;27.70;11.23;;;9.80;99.90;;;;;;4864563;29;20099;-86
2023/03/14 06:29:29;;;;;;;24.25;11.63;;;9.80;99.90;;;;;;4865222;29;20329;-69
2023/03/14 06:31:55;;;;;;;21.00;10.38;;;9.80;99.90;;;;;;4864880;29;20069;-69
2023/03/14 06:34:21;;;;;;;21.50;10.90;;;9.80;99.90;;;;;;4848221;29;20045;-69
2023/03/14 06:36:47;;;;;;;23.58;10.23;;;9.70;99.90;;;;;;4864784;29;20049;-69
2023/03/14 06:39:12;;;;;;;18.10;8.27;;;9.60;99.90;;;;;;4864743;29;20061;-69
2023/03/14 06:41:38;;;;;;;10.63;3.80;;;9.50;99.90;;;;;;4864696;29;20045;-69
2023/03/14 06:44:04;;;;;;;9.82;3.25;;;9.10;99.90;;;;;;4864744;29;20052;-69
2023/03/14 06:46:30;;;;;;;8.13;2.97;;;8.70;99.90;;;;;;4864580;29;20045;-69
2023/03/14 06:48:56;;;;;;;7.22;2.42;;;8.50;99.90;;;;;;4864608;29;20129;-69
2023/03/14 06:51:21;;;;;;;14.15;2.80;;;8.30;99.90;;;;;;4848247;29;20420;-69
2023/03/14 06:53:47;;;;;;;12.95;2.55;;;8.20;99.90;;;;;;4864572;29;20057;-69
2023/03/14 06:56:13;;;;;;;12.52;3.03;;;8.00;99.90;;;;;;4847982;29;20045;-69
2023/03/14 06:58:39;;;;;;;20.75;3.45;;;7.90;99.90;;;;;;4864212;29;20057;-69
2023/03/14 07:01:05;;;;;;;20.10;2.80;;;8.00;99.90;;;;;;4864436;29;20049;-69
2023/03/14 07:03:31;;;;;;;27.27;3.40;;;7.80;99.90;;;;;;4864156;29;20518;-69
2023/03/14 07:05:57;;;;;;;22.98;3.47;;;7.70;99.90;;;;;;4864339;29;20124;-69
2023/03/14 07:08:22;;;;;;;17.38;2.85;;;7.60;99.90;;;;;;4847384;29;20037;-69
2023/03/14 07:10:48;;;;;;;44.60;4.00;;;7.40;99.90;;;;;;4864372;29;20074;-69
2023/03/14 07:13:14;;;;;;;19.70;2.95;;;7.30;99.90;;;;;;4864051;29;20435;-69
2023/03/14 07:15:40;;;;;;;19.83;2.10;;;7.10;99.90;;;;;;4864322;29;20034;-69
2023/03/14 07:18:05;;;;;;;21.02;2.35;;;6.90;99.90;;;;;;4864079;29;20480;-69
2023/03/14 07:20:32;;;;;;;12.40;2.15;;;6.80;99.90;;;;;;4847644;29;20124;-69
2023/03/14 07:22:59;;;;;;;16.35;1.73;;;6.60;99.90;;;;;;4864202;29;20120;-69
2023/03/14 07:25:25;;;;;;;18.42;1.77;;;6.50;99.90;;;;;;4863989;29;20095;-69
2023/03/14 07:27:51;;;;;;;16.02;1.77;;;6.40;99.90;;;;;;4863470;29;20057;-69
2023/03/14 07:30:17;;;;;;;11.35;1.55;;;6.20;99.90;;;;;;4864184;29;20045;-69
2023/03/14 07:32:43;;;;;;;7.38;1.30;;;6.00;99.90;;;;;;4863930;29;20056;-69
2023/03/14 07:35:09;;;;;;;12.18;1.38;;;5.90;99.90;;;;;;4864127;29;20113;-69
2023/03/14 07:37:34;;;;;;;9.82;1.17;;;6.00;99.90;;;;;;4864090;29;20052;-69
2023/03/14 07:40:00;;;;;;;8.82;0.82;;;5.80;99.90;;;;;;4847887;29;20049;-69
2023/03/14 07:42:26;;;;;;;7.88;0.70;;;5.60;99.90;;;;;;4864062;29;20105;-69
2023/03/14 07:44:52;;;;;;;7.97;0.60;;;5.60;99.90;;;;;;4864062;29;20081;-69
2023/03/14 07:47:17;;;;;;;8.35;1.20;;;5.60;99.90;;;;;;4863973;29;20042;-70
2023/03/14 07:49:43;;;;;;;6.47;0.70;;;5.70;99.90;;;;;;4847747;29;20046;-70
2023/03/14 07:52:09;;;;;;;7.50;0.70;;;5.70;99.90;;;;;;4864575;29;20286;-69
2023/03/14 07:54:34;;;;;;;6.07;0.52;;;5.90;99.90;;;;;;4863962;29;20100;-71
2023/03/14 07:57:00;;;;;;;7.03;1.00;;;5.90;99.90;;;;;;4863688;29;20052;-67
2023/03/14 07:59:27;;;;;;;1.98;0.50;;;5.90;99.90;;;;;;4863255;29;20060;-67
2023/03/14 08:01:52;;;;;;;7.45;0.85;;;5.90;99.90;;;;;;4863919;29;20128;-67
2023/03/14 08:04:18;;;;;;;2.67;0.70;;;6.00;99.90;;;;;;4863649;29;20124;-67
2023/03/14 08:06:44;;;;;;;7.47;0.80;;;6.10;99.90;;;;;;4847550;29;20061;-67
2023/03/14 08:09:10;;;;;;;3.35;0.40;;;6.10;99.90;;;;;;4863844;29;20339;-67
2023/03/14 08:11:36;;;;;;;6.57;0.77;;;6.10;99.90;;;;;;4863618;29;20504;-67
2023/03/14 08:14:02;;;;;;;3.15;0.52;;;6.30;99.90;;;;;;4868552;29;20037;-67
2023/03/14 08:16:27;;;;;;;8.60;0.80;;;6.30;99.90;;;;;;4870060;29;20124;-67
2023/03/14 08:18:53;;;;;;;8.30;0.80;;;6.50;99.90;;;;;;4872620;29;20037;-67
2023/03/14 08:21:19;;;;;;;4.20;0.80;;;6.50;99.90;;;;;;4875701;29;20041;-67
2023/03/14 08:23:44;;;;;;;8.73;1.00;;;6.60;99.90;;;;;;4867067;29;20051;-67
2023/03/14 08:26:10;;;;;;;10.30;1.02;;;6.70;99.90;;;;;;4867038;29;20336;-67
2023/03/14 08:28:36;;;;;;;6.07;1.15;;;6.80;99.90;;;;;;4881892;29;20136;-67
2023/03/14 08:31:02;;;;;;;7.20;1.08;;;7.00;99.90;;;;;;4885289;29;20041;-67
2023/03/14 08:33:29;;;;;;;6.57;0.70;;;6.90;99.90;;;;;;4885528;29;20045;-67
2023/03/14 08:35:56;;;;;;;6.22;1.20;;;6.80;99.90;;;;;;4885523;29;20155;-67
2023/03/14 08:38:22;;;;;;;7.97;0.77;;;6.90;99.90;;;;;;4885440;29;20037;-67
2023/03/14 08:40:49;;;;;;;7.20;0.80;;;6.80;99.90;;;;;;4869085;29;20487;-67
2023/03/14 08:43:14;;;;;;;12.40;1.23;;;6.90;99.90;;;;;;4885361;29;20344;-67
2023/03/14 08:45:40;;;;;;;12.77;1.10;;;6.90;99.90;;;;;;4885353;29;20044;-67
2023/03/14 08:48:06;;;;;;;14.52;1.85;;;7.00;99.90;;;;;;4885203;29;20045;-67
2023/03/14 08:50:31;;;;;;;7.40;1.27;;;6.90;99.90;;;;;;4884908;29;20041;-67
2023/03/14 08:52:59;;;;;;;16.27;1.63;;;6.80;99.90;;;;;;4885179;29;20049;-67
2023/03/14 08:55:27;;;;;;;10.55;1.30;;;6.90;99.90;;;;;;4885164;29;20104;-68
2023/03/14 08:57:53;;;;;;;19.75;2.00;;;7.00;99.90;;;;;;4884775;29;20150;-67
2023/03/14 09:00:19;;;;;;;17.10;1.70;;;7.00;99.90;;;;;;4885042;29;20081;-67
2023/03/14 09:02:45;;;;;;;21.13;1.80;;;6.80;99.90;;;;;;4885032;29;20053;-67
2023/03/14 09:05:11;;;;;;;14.73;1.90;;;6.80;99.90;;;;;;4884672;29;20049;-69
2023/03/14 09:07:37;;;;;;;16.75;2.45;;;6.80;99.90;;;;;;4883427;29;20104;-67
2023/03/14 09:10:04;;;;;;;25.98;3.05;;;7.10;99.90;;;;;;4883326;29;20041;-68
2023/03/14 09:12:30;;;;;;;15.52;2.28;;;7.30;99.90;;;;;;4884585;29;20037;-67
2023/03/14 09:14:56;;;;;;;24.55;2.35;;;7.20;99.90;;;;;;4884915;29;20103;-67
2023/03/14 09:17:22;;;;;;;26.98;2.75;;;7.20;99.90;;;;;;4884830;29;20115;-67
2023/03/14 09:19:47;;;;;;;17.85;2.20;;;7.30;99.90;;;;;;4884829;29;20033;-67
2023/03/14 09:22:13;;;;;;;22.58;2.10;;;7.30;99.90;;;;;;4884706;29;20453;-67
2023/03/14 09:24:40;;;;;;;20.17;2.42;;;7.40;99.90;;;;;;4884487;29;20040;-67
2023/03/14 09:27:07;;;;;;;23.83;2.75;;;7.50;99.90;;;;;;4882297;29;20137;-67
2023/03/14 09:29:33;;;;;;;23.88;2.63;;;7.50;99.90;;;;;;4883998;29;20370;-67
2023/03/14 09:31:59;;;;;;;24.85;2.45;;;7.70;99.90;;;;;;4884097;29;20170;-67
2023/03/14 09:34:25;;;;;;;22.85;2.90;;;7.70;99.90;;;;;;4884199;29;20458;-67
2023/03/14 09:36:51;;;;;;;20.90;2.72;;;7.80;99.90;;;;;;4884208;29;20331;-67
2023/03/14 09:39:17;;;;;;;21.10;2.80;;;7.70;99.90;;;;;;4884442;29;20041;-67
2023/03/14 09:41:46;;;;;;;22.50;2.65;;;7.60;99.90;;;;;;4884177;29;20041;-68
2023/03/14 09:44:20;;;;;;;28.10;3.50;;;7.70;99.90;;;;;;4884348;29;20411;-67
2023/03/14 09:46:50;;;;;;;21.63;2.65;;;7.50;99.90;;;;;;4884286;29;20041;-67
2023/03/14 09:49:27;;;;;;;18.35;2.40;;;7.20;99.90;;;;;;4884285;29;20051;-67
2023/03/14 09:51:56;;;;;;;17.40;1.65;;;7.10;99.90;;;;;;4884272;29;20036;-67
2023/03/14 09:54:50;;;;;;;25.52;3.20;;;7.10;99.90;;;;;;4884148;29;20060;-67
2023/03/14 09:57:18;;;;;;;18.95;2.22;;;7.30;99.90;;;;;;4878161;29;20052;-67
2023/03/14 09:59:46;;;;;;;21.63;2.28;;;7.50;99.90;;;;;;4883356;29;20071;-67
2023/03/14 10:02:17;;;;;;;22.08;2.70;;;7.50;99.90;;;;;;4883986;29;20041;-67
2023/03/14 10:04:48;;;;;;;23.13;2.80;;;7.70;99.90;;;;;;4883994;29;20104;-67
2023/03/14 10:07:21;;;;;;;24.77;3.20;;;7.70;99.90;;;;;;4883844;29;20132;-67
2023/03/14 10:09:51;;;;;;;22.98;2.42;;;7.50;99.90;;;;;;4882600;29;20423;-67
2023/03/14 10:12:18;;;;;;;25.35;2.30;;;7.50;99.90;;;;;;4883539;29;20081;-67
2023/03/14 10:14:51;;;;;;;26.42;2.60;;;7.40;99.90;;;;;;4883726;29;20048;-67
2023/03/14 10:17:18;;;;;;;20.95;2.60;;;7.20;99.90;;;;;;4883732;29;20047;-67
2023/03/14 10:20:27;;;;;;;26.65;2.92;;;7.30;99.90;;;;;;4883681;29;20156;-67
2023/03/14 10:22:54;;;;;;;25.80;2.72;;;7.30;99.90;;;;;;4883643;29;20052;-69
2023/03/14 10:25:31;;;;;;;17.98;1.95;;;7.50;99.90;;;;;;4883580;29;20109;-67
2023/03/14 10:27:58;;;;;;;27.85;2.90;;;7.50;99.90;;;;;;4876724;29;20507;-68
2023/03/14 10:30:43;;;;;;;21.83;2.88;;;7.70;99.90;;;;;;4883277;29;20044;-67
2023/03/14 10:33:22;;;;;;;23.05;2.83;;;7.70;99.90;;;;;;4866732;29;20061;-67
2023/03/14 10:36:17;;;;;;;21.25;2.35;;;7.80;99.90;;;;;;4883144;29;20412;-67
2023/03/14 10:38:43;;;;;;;17.23;1.73;;;7.90;99.90;;;;;;4883396;29;20119;-68
2023/03/14 10:41:35;;;;;;;15.88;2.00;;;7.70;99.90;;;;;;4883331;29;20133;-66
2023/03/14 10:44:02;;;;;;;15.45;2.00;;;7.50;99.90;;;;;;4879611;29;20053;-67
2023/03/14 10:46:32;;;;;;;14.43;1.95;;;7.70;99.90;;;;;;4883176;29;20063;-66
2023/03/14 10:48:58;;;;;;;17.13;2.03;;;8.00;99.90;;;;;;4866694;29;20158;-68
2023/03/14 10:51:29;;;;;;;16.33;1.88;;;7.90;99.90;;;;;;4883123;29;20049;-67
2023/03/14 10:54:14;;;;;;;14.77;1.75;;;8.00;99.90;;;;;;4883125;29;20052;-81
2023/03/14 10:56:40;;;;;;;15.38;1.70;;;8.00;99.90;;;;;;4866447;29;20049;-67
2023/03/14 10:59:14;;;;;;;17.98;1.67;;;8.10;99.90;;;;;;4882687;29;20045;-67
2023/03/14 11:02:07;;;;;;;14.68;2.10;;;8.30;99.90;;;;;;4866650;29;20080;-67
2023/03/14 11:04:42;;;;;;;12.02;2.42;;;8.20;99.90;;;;;;4883068;29;20395;-67
2023/03/14 11:07:38;;;;;;;19.40;1.80;;;8.10;99.90;;;;;;4882918;29;20049;-67
2023/03/14 11:10:10;;;;;;;17.38;2.20;;;8.40;99.90;;;;;;4882980;29;20055;-68
2023/03/14 11:13:06;;;;;;;15.52;2.03;;;8.60;99.90;;;;;;4882918;29;20161;-68
2023/03/14 11:15:57;;;;;;;8.30;1.88;;;8.10;99.90;;;;;;4882980;29;20049;-67
2023/03/14 11:18:28;;;;;;;12.60;1.80;;;7.90;99.90;;;;;;4882918;29;20045;-68
2023/03/14 11:21:03;;;;;;;11.00;1.67;;;8.50;99.90;;;;;;4866778;29;20388;-68
2023/03/14 11:23:46;;;;;;;18.38;1.60;;;8.70;99.90;;;;;;4882846;29;20052;-67
2023/03/14 11:26:28;;;;;;;11.95;1.67;;;8.60;99.90;;;;;;4882791;29;20124;-67
2023/03/14 11:29:39;;;;;;;13.65;1.13;;;8.30;99.90;;;;;;4881959;29;20056;-68
2023/03/14 11:32:17;;;;;;;10.90;1.05;;;8.10;99.90;;;;;;4864678;29;20427;-67
2023/03/14 11:34:52;;;;;;;5.65;0.70;;;7.90;99.90;;;;;;4882754;29;20097;-68
2023/03/14 11:37:45;;;;;;;7.25;0.80;;;8.00;99.90;;;;;;4882773;29;20049;-67
2023/03/14 11:40:11;;;;;;;11.70;1.05;;;8.50;99.90;;;;;;4882729;29;20045;-67
2023/03/14 11:42:42;;;;;;;11.57;1.00;;;9.10;99.90;;;;;;4882638;29;20104;-67
2023/03/14 11:45:20;;;;;;;7.30;1.15;;;9.30;99.90;;;;;;4850765;29;20113;-66
2023/03/14 11:48:06;;;;;;;9.23;1.20;;;9.00;99.90;;;;;;4882552;29;20041;-77
2023/03/14 11:50:35;;;;;;;10.20;0.90;;;9.00;99.90;;;;;;4865926;29;20045;-65
2023/03/14 11:53:15;;;;;;;6.13;0.82;;;8.70;99.90;;;;;;4882634;29;20142;-66
2023/03/14 11:55:43;;;;;;;8.90;0.75;;;8.60;99.90;;;;;;4885429;29;20149;-66
2023/03/14 11:58:30;;;;;;;14.45;0.95;;;8.30;99.90;;;;;;4885804;29;20056;-66
2023/03/14 12:01:01;;;;;;;13.02;1.42;;;8.30;99.90;;;;;;4885744;29;20055;-66
2023/03/14 12:03:42;;;;;;;6.43;0.90;;;8.30;99.90;;;;;;4885876;29;20343;-66
2023/03/14 12:06:34;;;;;;;7.28;0.80;;;8.60;99.90;;;;;;4886047;29;20052;-66
2023/03/14 12:09:05;;;;;;;4.80;1.15;;;8.90;99.90;;;;;;4886040;29;20073;-66
2023/03/14 12:11:58;;;;;;;4.85;0.88;;;8.90;99.90;;;;;;4885668;29;20100;-67
2023/03/14 12:14:26;;;;;;;11.27;1.10;;;8.60;99.90;;;;;;4885942;29;20041;-66
2023/03/14 12:17:16;;;;;;;9.20;1.00;;;8.40;99.90;;;;;;4885884;29;20085;-66
2023/03/14 12:19:42;;;;;;;8.63;0.90;;;8.40;99.90;;;;;;4868885;29;20479;-67
2023/03/14 12:22:11;;;;;;;11.65;1.05;;;8.30;99.90;;;;;;4885791;29;20116;-68
2023/03/14 12:24:38;;;;;;;8.95;1.05;;;8.20;99.90;;;;;;4868983;29;20056;-67
2023/03/14 12:27:08;;;;;;;7.15;1.08;;;8.40;99.90;;;;;;4868931;29;20109;-67
2023/03/14 12:29:58;;;;;;;16.80;1.52;;;8.30;99.90;;;;;;4882873;29;20099;-68
2023/03/14 12:32:24;;;;;;;9.85;1.75;;;8.10;99.90;;;;;;4886081;29;20063;-77
2023/03/14 12:34:50;;;;;;;11.63;2.03;;;8.00;99.90;;;;;;4869124;29;20435;-68
2023/03/14 12:37:41;;;;;;;14.48;2.40;;;7.90;99.90;;;;;;4885484;29;20051;-68
2023/03/14 12:40:30;;;;;;;18.58;2.17;;;8.00;99.90;;;;;;4868805;29;20044;-68
2023/03/14 12:43:18;;;;;;;11.23;1.85;;;8.20;99.90;;;;;;4885424;29;20120;-68
2023/03/14 12:46:08;;;;;;;16.17;2.10;;;8.30;99.90;;;;;;4868975;29;20068;-68
2023/03/14 12:48:34;;;;;;;10.15;2.20;;;8.20;99.90;;;;;;4885350;29;20045;-68
2023/03/14 12:51:05;;;;;;;20.55;2.10;;;8.00;99.90;;;;;;4885248;29;20433;-68
2023/03/14 12:54:08;;;;;;;12.15;2.13;;;8.10;99.90;;;;;;4885204;29;20423;-68